createdAt,value
2018-12-17T00:00:57.957Z,4.10
2018-12-17T00:03:30.369Z,1.90
2018-12-17T00:12:52.426Z,2.57
2018-12-17T00:15:21.775Z,2.60
2018-12-17T00:17:50.836Z,7.03
2018-12-17T00:20:20.184Z,2.90
2018-12-17T00:22:50.219Z,3.80
2018-12-17T00:25:19.283Z,1.67
2018-12-17T00:27:48.788Z,2.00
2018-12-17T00:30:17.894Z,1.10
2018-12-17T00:32:47.833Z,1.17
2018-12-17T00:35:17.135Z,1.07
2018-12-17T00:37:51.268Z,2.93
2018-12-17T00:40:20.767Z,1.70
2018-12-17T00:42:54.394Z,3.37
2018-12-17T00:45:23.417Z,2.17
2018-12-17T00:47:57.194Z,0.80
2018-12-17T00:50:26.229Z,1.30
2018-12-17T00:53:00.397Z,2.30
2018-12-17T00:55:29.631Z,2.00
2018-12-17T00:58:03.186Z,0.40
2018-12-17T01:00:32.520Z,0.63
2018-12-17T01:03:07.419Z,0.93
2018-12-17T01:05:36.490Z,1.13
2018-12-17T01:08:12.558Z,0.50
2018-12-17T01:10:42.532Z,0.83
2018-12-17T01:13:13.893Z,1.30
2018-12-17T01:15:43.205Z,1.90
2018-12-17T01:18:17.044Z,1.43
2018-12-17T01:20:46.373Z,1.67
2018-12-17T01:23:18.039Z,0.90
2018-12-17T01:25:47.120Z,0.60
2018-12-17T01:28:22.325Z,2.03
2018-12-17T01:30:51.321Z,2.17
2018-12-17T01:33:23.505Z,3.20
2018-12-17T01:35:52.535Z,2.90
2018-12-17T01:38:26.394Z,2.77
2018-12-17T01:40:56.919Z,1.40
2018-12-17T01:43:27.969Z,1.70
2018-12-17T01:45:57.054Z,3.03
2018-12-17T01:48:30.619Z,1.93
2018-12-17T01:50:59.646Z,3.30
2018-12-17T01:53:34.031Z,4.27
2018-12-17T01:56:03.091Z,0.90
2018-12-17T01:58:34.708Z,1.57
2018-12-17T02:01:04.027Z,6.53
2018-12-17T02:03:37.590Z,2.73
2018-12-17T02:06:06.628Z,2.23
2018-12-17T02:08:41.950Z,2.10
2018-12-17T02:11:11.058Z,2.03
2018-12-17T02:13:43.450Z,1.67
2018-12-17T02:16:12.738Z,1.10
2018-12-17T02:18:45.847Z,1.33
2018-12-17T02:21:14.873Z,2.63
2018-12-17T02:23:51.413Z,3.23
2018-12-17T02:26:20.385Z,1.90
2018-12-17T02:28:51.405Z,1.70
2018-12-17T02:31:20.398Z,2.53
2018-12-17T02:33:56.986Z,3.67
2018-12-17T02:36:25.967Z,2.20
2018-12-17T02:38:57.869Z,2.83
2018-12-17T02:41:26.877Z,1.83
2018-12-17T02:44:01.384Z,3.50
2018-12-17T02:46:30.441Z,4.17
2018-12-17T02:49:03.080Z,5.63
2018-12-17T02:51:32.778Z,5.67
2018-12-17T02:54:07.361Z,3.33
2018-12-17T02:56:36.382Z,1.40
2018-12-17T02:59:10.232Z,1.23
2018-12-17T03:01:39.250Z,2.97
2018-12-17T03:04:15.350Z,2.00
2018-12-17T03:06:44.611Z,2.53
2018-12-17T03:09:16.839Z,1.37
2018-12-17T03:11:45.865Z,5.03
2018-12-17T03:14:21.933Z,2.63
2018-12-17T03:16:50.934Z,3.13
2018-12-17T03:19:22.115Z,3.60
2018-12-17T03:21:51.431Z,3.93
2018-12-17T03:24:22.851Z,4.77
2018-12-17T03:26:51.823Z,1.53
2018-12-17T03:29:26.016Z,4.10
2018-12-17T03:31:55.085Z,3.27
2018-12-17T03:34:28.448Z,3.97
2018-12-17T03:36:57.420Z,3.80
2018-12-17T03:39:32.780Z,6.13
2018-12-17T03:42:01.910Z,4.40
2018-12-17T03:44:34.901Z,2.70
2018-12-17T03:47:04.182Z,1.37
2018-12-17T03:49:36.842Z,3.23
2018-12-17T03:52:05.902Z,0.93
2018-12-17T03:54:40.065Z,1.93
2018-12-17T03:57:09.073Z,6.00
2018-12-17T03:59:42.048Z,1.60
2018-12-17T04:02:11.356Z,2.37
2018-12-17T04:04:46.059Z,2.97
2018-12-17T04:07:15.141Z,2.40
2018-12-17T04:09:48.382Z,2.43
2018-12-17T04:12:17.357Z,1.43
2018-12-17T04:14:50.178Z,2.80
2018-12-17T04:17:19.454Z,3.30
2018-12-17T04:19:53.038Z,3.30
2018-12-17T04:22:22.087Z,6.20
2018-12-17T04:24:56.917Z,3.57
2018-12-17T04:27:25.961Z,4.67
2018-12-17T04:30:01.837Z,3.90
2018-12-17T04:32:30.814Z,4.10
2018-12-17T04:35:02.326Z,3.00
2018-12-17T04:37:31.641Z,2.97
2018-12-17T04:40:07.164Z,2.90
2018-12-17T04:42:36.106Z,2.40
2018-12-17T04:45:09.336Z,4.53
2018-12-17T04:47:38.368Z,2.57
2018-12-17T04:50:14.213Z,3.97
2018-12-17T04:52:43.182Z,2.67
2018-12-17T04:55:15.180Z,3.43
2018-12-17T04:57:44.452Z,2.83
2018-12-17T05:00:18.569Z,4.07
2018-12-17T05:02:47.837Z,2.40
2018-12-17T05:05:20.802Z,1.73
2018-12-17T05:07:49.844Z,1.07
2018-12-17T05:10:23.469Z,2.00
2018-12-17T05:12:52.476Z,1.07
2018-12-17T05:15:26.116Z,1.00
2018-12-17T05:17:55.368Z,0.80
2018-12-17T05:20:28.450Z,0.80
2018-12-17T05:22:57.532Z,1.80
2018-12-17T05:25:29.840Z,0.93
2018-12-17T05:27:59.132Z,0.80
2018-12-17T05:30:34.851Z,1.07
2018-12-17T05:33:04.215Z,0.73
2018-12-17T05:35:35.600Z,0.83
2018-12-17T05:38:04.665Z,0.73
2018-12-17T05:40:37.959Z,1.10
2018-12-17T05:43:07.016Z,3.73
2018-12-17T05:45:40.993Z,1.23
2018-12-17T05:48:10.264Z,1.63
2018-12-17T05:50:42.943Z,1.20
2018-12-17T05:53:11.949Z,0.83
2018-12-17T05:55:48.198Z,2.47
2018-12-17T05:58:17.243Z,2.10
2018-12-17T06:00:47.962Z,0.90
2018-12-17T06:03:17.263Z,2.20
2018-12-17T06:05:51.534Z,0.70
2018-12-17T06:08:20.466Z,4.53
2018-12-17T06:10:54.268Z,1.37
2018-12-17T06:13:23.338Z,1.00
2018-12-17T06:15:57.582Z,0.93
2018-12-17T06:18:26.901Z,0.90
2018-12-17T06:21:00.064Z,1.50
2018-12-17T06:23:29.057Z,1.23
2018-12-17T06:26:04.031Z,1.20
2018-12-17T06:28:33.033Z,1.00
2018-12-17T06:31:06.686Z,0.80
2018-12-17T06:33:35.919Z,1.50
2018-12-17T06:36:10.942Z,0.87
2018-12-17T06:38:40.258Z,0.80
2018-12-17T06:41:14.709Z,1.20
2018-12-17T06:43:43.770Z,1.07
2018-12-17T06:46:17.681Z,1.63
2018-12-17T06:48:46.813Z,0.80
2018-12-17T06:51:22.464Z,2.40
2018-12-17T06:53:51.585Z,1.00
2018-12-17T06:56:21.826Z,1.83
2018-12-17T06:58:50.911Z,0.93
2018-12-17T07:01:24.902Z,1.80
2018-12-17T07:03:54.251Z,1.20
2018-12-17T07:06:27.100Z,2.40
2018-12-17T07:08:59.569Z,1.33
2018-12-17T07:11:30.194Z,1.07
2018-12-17T07:14:00.185Z,1.20
2018-12-17T07:16:32.085Z,1.40
2018-12-17T07:19:01.421Z,1.20
2018-12-17T07:21:34.936Z,1.40
2018-12-17T07:24:04.172Z,2.60
2018-12-17T07:26:36.805Z,1.17
2018-12-17T07:29:06.232Z,1.50
2018-12-17T07:31:42.627Z,3.00
2018-12-17T07:34:11.733Z,1.40
2018-12-17T07:36:43.732Z,1.47
2018-12-17T07:39:13.181Z,1.57
2018-12-17T07:41:48.196Z,3.13
2018-12-17T07:44:17.623Z,2.00
2018-12-17T07:47:04.814Z,2.83
2018-12-17T07:49:34.140Z,2.10
2018-12-17T07:52:04.089Z,4.00
2018-12-17T07:54:34.161Z,1.97
2018-12-17T07:57:03.377Z,4.03
2018-12-17T07:59:32.489Z,2.97
2018-12-17T08:02:02.441Z,3.27
2018-12-17T08:04:34.050Z,2.13
2018-12-17T08:07:04.353Z,2.93
2018-12-17T08:09:33.403Z,1.63
2018-12-17T08:12:03.286Z,2.60
2018-12-17T08:14:32.395Z,2.67
2018-12-17T08:17:05.980Z,3.77
2018-12-17T08:19:35.419Z,1.97
2018-12-17T08:22:08.033Z,1.47
2018-12-17T08:24:37.091Z,5.67
2018-12-17T08:27:14.962Z,4.30
2018-12-17T08:29:44.153Z,2.83
2018-12-17T08:32:16.124Z,2.17
2018-12-17T08:34:45.288Z,2.97
2018-12-17T08:37:20.142Z,3.00
2018-12-17T08:39:49.660Z,3.03
2018-12-17T08:42:19.349Z,2.13
2018-12-17T08:44:48.571Z,4.05
2018-12-17T08:47:24.603Z,3.93
2018-12-17T08:49:53.878Z,5.13
2018-12-17T08:52:26.723Z,2.67
2018-12-17T08:54:56.159Z,2.27
2018-12-17T08:57:29.317Z,1.93
2018-12-17T08:59:58.393Z,4.17
2018-12-17T09:02:32.492Z,2.87
2018-12-17T09:05:03.908Z,9.00
2018-12-17T09:07:35.779Z,5.57
2018-12-17T09:10:06.098Z,1.70
2018-12-17T09:12:36.869Z,4.10
2018-12-17T09:15:06.391Z,5.40
2018-12-17T09:17:40.008Z,3.07
2018-12-17T09:20:10.175Z,3.63
2018-12-17T09:22:42.743Z,6.23
2018-12-17T09:25:12.241Z,2.63
2018-12-17T09:27:45.138Z,4.00
2018-12-17T09:30:18.360Z,4.50
2018-12-17T09:32:48.611Z,3.30
2018-12-17T09:35:17.863Z,4.97
2018-12-17T09:37:50.996Z,4.63
2018-12-17T09:40:20.513Z,3.30
2018-12-17T09:42:51.417Z,4.43
2018-12-17T09:45:20.546Z,2.73
2018-12-17T09:47:58.000Z,3.47
2018-12-17T09:50:27.078Z,3.13
2018-12-17T09:52:59.545Z,2.43
2018-12-17T09:55:28.982Z,5.20
2018-12-17T09:58:02.108Z,4.27
2018-12-17T10:00:31.411Z,2.23
2018-12-17T10:03:07.538Z,2.53
2018-12-17T10:05:36.683Z,3.73
2018-12-17T10:08:05.841Z,1.83
2018-12-17T10:10:36.425Z,4.83
2018-12-17T10:13:10.824Z,5.30
2018-12-17T10:15:40.008Z,2.30
2018-12-17T10:18:15.531Z,1.10
2018-12-17T10:20:44.632Z,2.73
2018-12-17T10:23:19.249Z,5.97
2018-12-17T10:25:50.743Z,1.40
2018-12-17T10:28:20.411Z,2.83
2018-12-17T10:30:49.538Z,2.43
2018-12-17T10:33:23.076Z,1.70
2018-12-17T10:35:52.230Z,2.57
2018-12-17T10:38:26.119Z,1.80
2018-12-17T10:40:55.710Z,2.40
2018-12-17T10:43:25.584Z,1.70
2018-12-17T10:45:54.904Z,7.80
2018-12-17T10:48:30.729Z,2.00
2018-12-17T10:51:00.875Z,2.30
2018-12-17T10:53:31.610Z,1.73
2018-12-17T10:56:00.733Z,2.00
2018-12-17T10:58:36.062Z,2.87
2018-12-17T11:01:12.695Z,3.20
2018-12-17T11:03:46.589Z,3.07
2018-12-17T11:06:17.696Z,1.33
2018-12-17T11:08:48.888Z,4.67
2018-12-17T11:11:18.132Z,5.07
2018-12-17T11:13:47.384Z,2.40
2018-12-17T11:16:16.782Z,4.23
2018-12-17T11:18:47.316Z,5.93
2018-12-17T11:21:16.508Z,3.60
2018-12-17T11:23:49.239Z,4.83
2018-12-17T11:26:18.753Z,3.67
2018-12-17T11:28:52.129Z,2.63
2018-12-17T11:31:21.256Z,2.93
2018-12-17T11:33:55.770Z,3.50
2018-12-17T11:36:24.921Z,3.23
2018-12-17T11:38:56.404Z,6.70
2018-12-17T11:41:25.552Z,2.50
2018-12-17T11:44:01.380Z,3.77
2018-12-17T11:46:30.869Z,6.53
2018-12-17T11:49:07.115Z,5.20
2018-12-17T11:51:36.165Z,3.63
2018-12-17T11:54:07.992Z,6.30
2018-12-17T11:56:52.266Z,5.23
2018-12-17T11:59:28.475Z,3.73
2018-12-17T12:01:58.706Z,2.83
2018-12-17T12:04:30.454Z,3.10
2018-12-17T12:07:02.596Z,4.23
2018-12-17T12:09:36.793Z,3.47
2018-12-17T12:12:27.601Z,6.27
2018-12-17T12:14:58.008Z,3.63
2018-12-17T12:17:28.602Z,6.43
2018-12-17T12:20:00.713Z,2.10
2018-12-17T12:23:32.724Z,3.90
2018-12-17T12:26:02.083Z,1.97
2018-12-17T12:28:32.818Z,2.27
2018-12-17T12:31:02.136Z,5.10
2018-12-17T12:33:31.842Z,4.43
2018-12-17T12:36:01.005Z,0.90
2018-12-17T12:38:32.047Z,2.23
2018-12-17T12:41:01.548Z,5.50
2018-12-17T12:43:32.855Z,3.43
2018-12-17T12:46:01.992Z,5.90
2018-12-17T12:48:39.240Z,2.97
2018-12-17T12:51:08.524Z,3.87
2018-12-17T12:53:39.975Z,2.83
2018-12-17T12:56:11.074Z,5.30
2018-12-17T12:58:42.439Z,2.97
2018-12-17T13:01:12.082Z,6.07
2018-12-17T13:03:46.236Z,4.57
2018-12-17T13:06:15.678Z,5.17
2018-12-17T13:08:47.511Z,6.20
2018-12-17T13:11:16.710Z,5.73
2018-12-17T13:13:51.191Z,3.70
2018-12-17T13:16:21.759Z,7.20
2018-12-17T13:18:54.527Z,6.90
2018-12-17T13:21:24.149Z,4.47
2018-12-17T13:23:57.912Z,6.17
2018-12-17T13:26:27.116Z,7.20
2018-12-17T13:28:59.098Z,3.87
2018-12-17T13:31:28.339Z,3.87
2018-12-17T13:34:02.225Z,3.60
2018-12-17T13:36:31.488Z,5.67
2018-12-17T13:39:08.103Z,7.07
2018-12-17T13:41:38.121Z,8.40
2018-12-17T13:44:09.357Z,6.27
2018-12-17T13:46:38.608Z,6.30
2018-12-17T13:49:13.635Z,1.60
2018-12-17T13:51:48.016Z,6.87
2018-12-17T13:54:17.713Z,4.87
2018-12-17T13:56:47.010Z,5.30
2018-12-17T13:59:22.004Z,5.43
2018-12-17T14:01:53.187Z,8.33
2018-12-17T14:04:24.314Z,6.87
2018-12-17T14:06:54.136Z,5.47
2018-12-17T14:09:28.581Z,6.47
2018-12-17T14:11:58.209Z,4.60
2018-12-17T14:14:32.102Z,3.93
2018-12-17T14:18:10.940Z,4.03
2018-12-17T14:20:45.406Z,7.93
2018-12-17T14:23:15.061Z,5.80
2018-12-17T14:25:45.046Z,4.20
2018-12-17T14:28:14.500Z,3.10
2018-12-17T14:30:43.752Z,4.57
2018-12-17T14:33:12.994Z,4.00
2018-12-17T14:35:47.673Z,6.33
2018-12-17T14:38:17.531Z,6.13
2018-12-17T14:43:25.412Z,5.30
2018-12-17T14:45:54.610Z,4.97
2018-12-17T14:48:24.250Z,5.70
2018-12-17T14:50:53.449Z,5.13
2018-12-17T14:53:22.928Z,5.80
2018-12-17T14:55:54.828Z,6.20
2018-12-17T14:58:24.046Z,3.87
2018-12-17T15:00:53.283Z,3.93
2018-12-17T15:03:22.762Z,7.97
2018-12-17T15:05:52.012Z,7.17
2018-12-17T15:08:21.145Z,5.43
2018-12-17T15:10:56.550Z,4.70
2018-12-17T15:13:25.994Z,4.57
2018-12-17T15:15:58.536Z,4.50
2018-12-17T15:18:34.926Z,5.40
2018-12-17T15:21:11.793Z,5.57
2018-12-17T15:23:41.808Z,9.43
2018-12-17T15:26:11.624Z,9.27
2018-12-17T15:28:40.898Z,5.00
2018-12-17T15:31:10.502Z,7.80
2018-12-17T15:33:39.685Z,3.30
2018-12-17T15:36:10.879Z,4.07
2018-12-17T15:38:41.271Z,8.50
2018-12-17T15:41:14.030Z,7.50
2018-12-17T15:43:43.501Z,4.07
2018-12-17T15:46:19.971Z,8.03
2018-12-17T15:48:49.246Z,8.97
2018-12-17T15:51:22.286Z,6.50
2018-12-17T15:53:52.033Z,8.93
2018-12-17T15:56:24.257Z,6.37
2018-12-17T15:58:53.636Z,5.23
2018-12-17T16:01:26.616Z,5.03
2018-12-17T16:03:56.385Z,5.07
2018-12-17T16:06:28.535Z,4.63
2018-12-17T16:08:58.045Z,5.40
2018-12-17T16:11:37.209Z,3.00
2018-12-17T16:14:13.135Z,3.07
2018-12-17T16:16:42.954Z,4.03
2018-12-17T16:19:12.135Z,7.17
2018-12-17T16:21:41.439Z,7.63
2018-12-17T16:24:11.001Z,3.63
2018-12-17T16:26:41.198Z,5.67
2018-12-17T16:29:10.433Z,9.20
2018-12-17T16:31:41.494Z,4.83
2018-12-17T16:34:10.607Z,10.10
2018-12-17T16:36:43.654Z,3.70
2018-12-17T16:39:13.294Z,2.63
2018-12-17T16:41:49.610Z,6.60
2018-12-17T16:44:19.107Z,5.23
2018-12-17T16:46:50.557Z,8.33
2018-12-17T16:49:19.832Z,6.13
2018-12-17T16:51:56.468Z,7.10
2018-12-17T16:54:26.319Z,7.67
2018-12-17T16:56:56.489Z,4.13
2018-12-17T16:59:27.120Z,7.73
2018-12-17T17:02:04.483Z,6.70
2018-12-17T17:04:31.381Z,6.87
2018-12-17T17:07:01.741Z,7.43
2018-12-17T17:09:31.437Z,7.43
2018-12-17T17:12:05.042Z,5.53
2018-12-17T17:14:34.259Z,5.73
2018-12-17T17:17:07.776Z,3.20
2018-12-17T17:19:37.464Z,12.57
2018-12-17T17:22:10.434Z,7.47
2018-12-17T17:24:40.156Z,3.63
2018-12-17T17:27:16.642Z,8.00
2018-12-17T17:29:45.799Z,6.20
2018-12-17T17:32:18.376Z,10.73
2018-12-17T17:34:47.756Z,5.53
2018-12-17T17:37:19.856Z,8.13
2018-12-17T17:39:49.359Z,9.53
2018-12-17T17:42:22.426Z,4.33
2018-12-17T17:44:51.644Z,8.60
2018-12-17T17:47:25.567Z,7.53
2018-12-17T17:49:54.865Z,11.07
2018-12-17T17:52:25.173Z,5.40
2018-12-17T17:54:54.628Z,9.43
2018-12-17T17:57:29.416Z,8.30
2018-12-17T17:59:58.610Z,11.33
2018-12-17T18:02:32.981Z,8.57
2018-12-17T18:05:02.536Z,6.73
2018-12-17T18:07:34.559Z,12.93
2018-12-17T18:10:05.975Z,7.70
2018-12-17T18:12:35.919Z,7.93
2018-12-17T18:15:05.311Z,11.20
2018-12-17T18:17:39.617Z,7.90
2018-12-17T18:20:09.345Z,7.03
2018-12-17T18:22:42.480Z,7.57
2018-12-17T18:25:12.539Z,6.47
2018-12-17T18:27:45.319Z,8.97
2018-12-17T18:30:15.265Z,9.13
2018-12-17T18:32:48.188Z,5.40
2018-12-17T18:35:17.949Z,14.00
2018-12-17T18:37:49.013Z,8.47
2018-12-17T18:40:20.743Z,9.63
2018-12-17T18:42:53.630Z,8.53
2018-12-17T18:45:23.513Z,9.93
2018-12-17T18:47:54.410Z,6.87
2018-12-17T18:50:23.719Z,9.60
2018-12-17T18:53:00.345Z,8.13
2018-12-17T18:55:29.779Z,8.10
2018-12-17T18:58:02.492Z,10.50
2018-12-17T19:00:32.017Z,8.33
2018-12-17T19:03:09.297Z,5.93
2018-12-17T19:05:38.767Z,6.87
2018-12-17T19:08:08.298Z,8.97
2018-12-17T19:10:43.149Z,11.10
2018-12-17T19:13:12.710Z,9.83
2018-12-17T19:15:47.234Z,7.97
2018-12-17T19:18:17.633Z,10.87
2018-12-17T19:20:46.996Z,13.47
2018-12-17T19:23:18.008Z,7.23
2018-12-17T19:25:48.931Z,9.40
2018-12-17T19:28:21.566Z,13.37
2018-12-17T19:30:50.871Z,12.47
2018-12-17T19:33:23.991Z,7.33
2018-12-17T19:35:53.576Z,6.33
2018-12-17T19:38:26.327Z,8.53
2018-12-17T19:40:56.884Z,8.13
2018-12-17T19:43:28.313Z,8.20
2018-12-17T19:45:57.668Z,14.50
2018-12-17T19:48:32.348Z,12.93
2018-12-17T19:51:02.832Z,6.10
2018-12-17T19:53:32.839Z,8.80
2018-12-17T19:56:02.650Z,9.67
2018-12-17T19:58:35.898Z,8.17
2018-12-17T20:01:06.035Z,8.27
2018-12-17T20:03:39.061Z,6.90
2018-12-17T20:06:08.385Z,7.67
2018-12-17T20:08:41.672Z,6.13
2018-12-17T20:11:11.441Z,9.07
2018-12-17T20:13:44.475Z,9.53
2018-12-17T20:16:14.405Z,9.90
2018-12-17T20:18:48.698Z,7.10
2018-12-17T20:21:18.312Z,9.17
2018-12-17T20:23:49.434Z,10.23
2018-12-17T20:26:18.929Z,12.13
2018-12-17T20:28:53.888Z,12.07
2018-12-17T20:31:25.037Z,10.30
2018-12-17T20:33:57.006Z,10.97
2018-12-17T20:36:26.349Z,7.93
2018-12-17T20:38:58.161Z,9.43
2018-12-17T20:41:27.842Z,10.10
2018-12-17T20:44:01.683Z,16.20
2018-12-17T20:46:31.392Z,12.43
2018-12-17T20:49:10.675Z,10.97
2018-12-17T20:51:41.248Z,12.83
2018-12-17T20:54:11.255Z,11.27
2018-12-17T20:56:40.851Z,11.07
2018-12-17T20:59:12.527Z,9.23
2018-12-17T21:01:42.359Z,14.33
2018-12-17T21:04:19.913Z,13.87
2018-12-17T21:06:50.297Z,11.77
2018-12-17T21:09:20.793Z,9.43
2018-12-17T21:11:52.603Z,9.13
2018-12-17T21:14:23.896Z,10.57
2018-12-17T21:17:05.064Z,13.07
2018-12-17T21:19:43.189Z,8.90
2018-12-17T21:22:41.679Z,10.73
2018-12-17T21:27:51.730Z,10.07
2018-12-17T21:30:34.360Z,14.13
2018-12-17T21:33:06.893Z,12.27
2018-12-17T21:35:37.167Z,12.87
2018-12-17T21:38:35.880Z,9.80
2018-12-17T21:41:07.473Z,11.93
2018-12-17T21:43:38.182Z,6.27
2018-12-17T21:46:38.784Z,11.17
2018-12-17T21:49:09.370Z,9.53
2018-12-17T21:51:40.530Z,6.23
2018-12-17T21:54:18.419Z,9.90
2018-12-17T21:56:49.004Z,13.40
2018-12-17T21:59:19.538Z,9.10
2018-12-17T22:01:49.289Z,13.50
2018-12-17T22:04:23.262Z,9.53
2018-12-17T22:06:52.763Z,13.07
2018-12-17T22:09:22.453Z,7.17
2018-12-17T22:11:53.506Z,8.07
2018-12-17T22:14:23.063Z,12.33
2018-12-17T22:16:52.884Z,8.33
2018-12-17T22:19:22.970Z,8.10
2018-12-17T22:21:52.535Z,8.07
2018-12-17T22:24:22.325Z,10.13
2018-12-17T22:26:59.312Z,11.97
2018-12-17T22:29:28.933Z,11.90
2018-12-17T22:31:59.451Z,10.27
2018-12-17T22:34:29.113Z,9.40
2018-12-17T22:37:04.404Z,9.17
2018-12-17T22:39:34.155Z,11.80
2018-12-17T22:42:05.271Z,8.70
2018-12-17T22:44:34.689Z,8.00
2018-12-17T22:47:09.104Z,15.17
2018-12-17T22:49:40.061Z,10.00
2018-12-17T22:52:11.287Z,8.90
2018-12-17T22:54:40.959Z,9.57
2018-12-17T22:57:18.749Z,8.93
2018-12-17T22:59:48.513Z,10.03
2018-12-17T23:02:18.247Z,8.10
2018-12-17T23:04:47.591Z,7.87
2018-12-17T23:07:18.255Z,9.83
2018-12-17T23:10:02.954Z,12.53
2018-12-17T23:12:43.326Z,10.93
2018-12-17T23:15:27.202Z,5.83
2018-12-17T23:17:56.796Z,7.37
2018-12-17T23:20:26.473Z,10.33
2018-12-17T23:22:56.498Z,12.97
2018-12-17T23:25:27.394Z,8.50
2018-12-17T23:27:58.711Z,7.90
2018-12-17T23:30:30.226Z,9.53
2018-12-17T23:33:00.838Z,5.70
2018-12-17T23:35:32.042Z,8.43
2018-12-17T23:38:01.758Z,7.97
2018-12-17T23:40:33.556Z,5.90
2018-12-17T23:43:03.232Z,6.70
2018-12-17T23:45:38.154Z,6.50
2018-12-17T23:48:08.182Z,6.60
2018-12-17T23:50:40.736Z,8.50
2018-12-17T23:53:10.122Z,5.20
2018-12-17T23:55:41.194Z,5.33
2018-12-17T23:58:12.332Z,4.90
